Time;durP1;ratioP1;P1;durP2;ratioP2;P2;SDS_P1;SDS_P2;PMS_P1;PMS_P2;Temp;Humidity;BMP_temperature;BMP_pressure;BME280_temperature;BME280_humidity;BME280_pressure;Samples;Min_cycle;Max_cycle;Signal;HPM_P1;HPM_P2
2022/01/19 00:01:13;;;;;;;35.22;16.25;;;;;;;;;;5022930;28;20064;-66
2022/01/19 00:03:40;;;;;;;42.22;17.70;;;;;;;;;;5008017;28;20053;-66
2022/01/19 00:06:06;;;;;;;40.40;17.65;;;;;;;;;;5010537;28;20050;-66
2022/01/19 00:08:33;;;;;;;45.65;18.13;;;;;;;;;;5023499;28;20547;-66
2022/01/19 00:10:59;;;;;;;45.97;17.92;;;;;;;;;;5016115;28;20049;-66
2022/01/19 00:13:26;;;;;;;43.63;17.33;;;;;;;;;;5028707;28;20406;-66
2022/01/19 00:15:52;;;;;;;41.80;17.02;;;;;;;;;;5014486;28;20060;-67
2022/01/19 00:18:20;;;;;;;44.85;17.35;;;;;;;;;;5021531;28;20060;-66
2022/01/19 00:20:47;;;;;;;39.17;18.50;;;;;;;;;;5020533;28;20059;-66
2022/01/19 00:23:15;;;;;;;50.30;17.38;;;;;;;;;;5013989;28;20458;-66
2022/01/19 00:25:43;;;;;;;47.55;18.20;;;;;;;;;;5021536;28;20061;-66
2022/01/19 00:28:10;;;;;;;45.60;18.58;;;;;;;;;;5015542;28;20125;-66
2022/01/19 00:30:36;;;;;;;50.22;18.48;;;;;;;;;;5025408;28;20053;-66
2022/01/19 00:33:03;;;;;;;48.03;19.88;;;;;;;;;;5016881;28;20053;-67
2022/01/19 00:35:29;;;;;;;45.28;18.83;;;;;;;;;;5018579;28;20056;-66
2022/01/19 00:37:55;;;;;;;49.30;18.45;;;;;;;;;;5027483;28;20060;-67
2022/01/19 00:40:22;;;;;;;48.80;19.40;;;;;;;;;;5020643;28;20050;-67
2022/01/19 00:42:49;;;;;;;50.72;19.95;;;;;;;;;;5026958;28;20483;-66
2022/01/19 00:45:16;;;;;;;44.08;19.98;;;;;;;;;;5019376;28;20049;-67
2022/01/19 00:47:42;;;;;;;53.95;20.45;;;;;;;;;;5021342;28;20060;-66
2022/01/19 00:50:11;;;;;;;47.78;17.27;;;;;;;;;;5023527;28;20052;-67
2022/01/19 00:52:37;;;;;;;42.72;18.08;;;;;;;;;;5022871;28;20418;-66
2022/01/19 00:55:04;;;;;;;48.25;18.58;;;;;;;;;;5024225;28;20483;-67
2022/01/19 00:57:31;;;;;;;36.47;15.65;;;;;;;;;;5021741;28;20410;-67
2022/01/19 00:59:57;;;;;;;40.75;17.60;;;;;;;;;;5023682;28;20041;-66
2022/01/19 01:02:24;;;;;;;36.95;16.92;;;;;;;;;;5019050;28;20052;-66
2022/01/19 01:04:50;;;;;;;39.00;15.30;;;;;;;;;;5024127;28;20095;-67
2022/01/19 01:07:17;;;;;;;36.83;15.35;;;;;;;;;;5034670;28;20159;-67
2022/01/19 01:09:43;;;;;;;32.95;16.10;;;;;;;;;;5018905;28;20711;-66
2022/01/19 01:12:12;;;;;;;47.90;18.58;;;;;;;;;;5031380;28;20368;-67
2022/01/19 01:20:11;;;;;;;45.15;18.52;;;;;;;;;;5014049;28;20388;-67
2022/01/19 01:22:38;;;;;;;49.78;19.70;;;;;;;;;;5030006;28;20046;-66
2022/01/19 01:25:05;;;;;;;45.50;18.15;;;;;;;;;;5028331;28;20061;-67
2022/01/19 01:27:34;;;;;;;50.05;18.95;;;;;;;;;;5021165;28;20128;-66
2022/01/19 01:30:01;;;;;;;44.75;18.25;;;;;;;;;;5018228;28;20037;-66
2022/01/19 01:32:27;;;;;;;44.40;18.55;;;;;;;;;;5023555;28;20088;-66
2022/01/19 01:34:53;;;;;;;46.65;17.98;;;;;;;;;;5028013;28;20049;-66
2022/01/19 01:37:20;;;;;;;51.08;19.30;;;;;;;;;;5022484;28;20049;-67
2022/01/19 01:39:46;;;;;;;49.85;19.58;;;;;;;;;;5032166;28;20178;-67
2022/01/19 01:42:15;;;;;;;45.83;19.45;;;;;;;;;;5022409;28;20049;-67
2022/01/19 01:44:45;;;;;;;;;;;;;;;;;;5016071;28;20057;-66
2022/01/19 01:47:13;;;;;;;47.97;20.25;;;;;;;;;;5028352;28;19920;-66
2022/01/19 01:53:25;;;;;;;46.30;17.65;;;;;;;;;;5019202;28;20064;-66
2022/01/19 01:55:20;;;;;;;33.83;15.57;;;;;;;;;;5015014;28;20752;-67
2022/01/19 01:57:47;;;;;;;47.10;15.18;;;;;;;;;;5027825;28;20860;-66
2022/01/19 02:00:15;;;;;;;33.60;15.02;;;;;;;;;;5000369;28;20052;-67
2022/01/19 02:02:41;;;;;;;42.53;14.45;;;;;;;;;;5030856;28;20073;-66
2022/01/19 02:05:10;;;;;;;37.03;14.60;;;;;;;;;;5026596;28;20132;-66
2022/01/19 02:07:45;;;;;;;37.63;15.35;;;;;;;;;;5022778;28;20457;-67
2022/01/19 02:10:33;;;;;;;31.50;15.68;;;;;;;;;;5022239;28;20041;-66
2022/01/19 02:16:13;;;;;;;52.20;15.40;;;;;;;;;;5028397;28;19925;-67
2022/01/19 02:21:39;;;;;;;30.02;13.93;;;;;;;;;;5024057;28;20071;-66
2022/01/19 02:24:09;;;;;;;31.10;14.32;;;;;;;;;;5015061;28;20056;-66
2022/01/19 02:40:25;;;;;;;39.95;18.30;;;;;;;;;;5012955;28;20081;-67
2022/01/19 02:50:33;;;;;;;42.10;18.70;;;;;;;;;;5024943;28;20049;-66
2022/01/19 02:52:59;;;;;;;46.08;21.10;;;;;;;;;;5015295;28;20067;-66
2022/01/19 02:55:25;;;;;;;44.60;20.42;;;;;;;;;;5015689;28;20057;-66
2022/01/19 02:57:52;;;;;;;45.60;20.83;;;;;;;;;;5021309;28;20042;-66
2022/01/19 03:08:47;;;;;;;43.25;18.60;;;;;;;;;;5019924;28;20049;-66
2022/01/19 03:11:15;;;;;;;37.70;18.20;;;;;;;;;;5026422;28;20056;-66
2022/01/19 03:13:42;;;;;;;44.78;20.52;;;;;;;;;;5027599;28;20105;-66
2022/01/19 03:16:09;;;;;;;40.30;19.55;;;;;;;;;;5018351;28;20060;-67
2022/01/19 03:18:35;;;;;;;44.47;20.48;;;;;;;;;;5022025;28;20041;-67
2022/01/19 03:21:02;;;;;;;47.53;20.90;;;;;;;;;;5020862;28;20497;-66
2022/01/19 03:23:29;;;;;;;44.97;19.55;;;;;;;;;;5032199;28;20422;-67
2022/01/19 03:25:57;;;;;;;42.33;18.65;;;;;;;;;;5026702;28;20482;-66
2022/01/19 03:28:24;;;;;;;40.13;16.98;;;;;;;;;;5033367;28;20053;-66
2022/01/19 03:30:50;;;;;;;45.70;19.50;;;;;;;;;;5027806;28;20053;-66
2022/01/19 03:33:16;;;;;;;42.25;19.05;;;;;;;;;;5034874;28;20074;-66
2022/01/19 03:35:43;;;;;;;46.13;19.35;;;;;;;;;;5024269;28;20069;-66
2022/01/19 03:38:10;;;;;;;38.58;19.10;;;;;;;;;;5023956;28;20056;-66
2022/01/19 03:40:38;;;;;;;44.88;19.27;;;;;;;;;;5027775;28;20057;-66
2022/01/19 03:43:05;;;;;;;38.97;17.88;;;;;;;;;;5022784;28;20041;-67
2022/01/19 03:45:33;;;;;;;41.78;18.90;;;;;;;;;;5028760;28;20048;-66
2022/01/19 03:48:16;;;;;;;34.47;18.00;;;;;;;;;;5023396;28;20037;-67
2022/01/19 03:50:42;;;;;;;43.17;17.90;;;;;;;;;;5019969;28;20509;-67
2022/01/19 03:53:09;;;;;;;39.78;18.00;;;;;;;;;;5031787;28;20041;-66
2022/01/19 03:55:35;;;;;;;42.22;17.10;;;;;;;;;;5024188;28;20045;-66
2022/01/19 03:58:02;;;;;;;37.40;18.70;;;;;;;;;;5033101;28;20049;-66
2022/01/19 04:00:33;;;;;;;39.40;18.67;;;;;;;;;;5015630;28;20049;-66
2022/01/19 04:03:07;;;;;;;40.40;18.17;;;;;;;;;;5023443;28;20494;-66
2022/01/19 04:08:17;;;;;;;39.45;18.33;;;;;;;;;;5028638;28;20068;-66
2022/01/19 04:10:44;;;;;;;34.30;15.73;;;;;;;;;;5028139;28;20505;-67
2022/01/19 04:13:44;;;;;;;37.58;17.00;;;;;;;;;;5020428;28;20048;-66
2022/01/19 04:16:11;;;;;;;33.15;15.90;;;;;;;;;;5024009;28;20049;-66
2022/01/19 04:18:37;;;;;;;30.05;16.17;;;;;;;;;;5022555;28;20045;-67
2022/01/19 04:21:07;;;;;;;39.40;16.30;;;;;;;;;;5037172;28;20057;-66
2022/01/19 04:23:33;;;;;;;34.63;17.25;;;;;;;;;;5023988;28;20050;-67
2022/01/19 04:26:00;;;;;;;39.20;16.30;;;;;;;;;;5034687;28;20053;-66
2022/01/19 04:28:26;;;;;;;36.85;15.82;;;;;;;;;;5024940;28;20053;-66
2022/01/19 04:30:52;;;;;;;36.85;16.48;;;;;;;;;;5016362;28;20041;-66
2022/01/19 04:33:23;;;;;;;34.00;16.10;;;;;;;;;;5026977;28;20045;-66
2022/01/19 04:35:52;;;;;;;32.58;16.08;;;;;;;;;;5025218;28;20490;-66
2022/01/19 04:46:21;;;;;;;26.33;14.05;;;;;;;;;;5029277;28;20049;-66
2022/01/19 04:49:11;;;;;;;27.42;13.90;;;;;;;;;;5024459;28;20506;-66
2022/01/19 04:54:44;;;;;;;32.97;14.90;;;;;;;;;;5032352;28;20075;-66
2022/01/19 05:05:14;;;;;;;26.98;13.88;;;;;;;;;;5023947;28;20423;-66
2022/01/19 05:15:45;;;;;;;31.85;14.93;;;;;;;;;;5021820;28;20050;-67
2022/01/19 05:18:12;;;;;;;26.27;12.93;;;;;;;;;;5029390;28;20405;-66
2022/01/19 05:20:39;;;;;;;32.47;14.93;;;;;;;;;;5023721;28;20045;-66
2022/01/19 05:23:05;;;;;;;29.70;13.35;;;;;;;;;;5012356;28;20053;-66
2022/01/19 05:25:31;;;;;;;23.00;11.88;;;;;;;;;;5025783;28;20069;-66
2022/01/19 05:27:58;;;;;;;30.92;13.55;;;;;;;;;;5019887;28;20045;-66
2022/01/19 05:30:24;;;;;;;27.63;13.45;;;;;;;;;;5030985;28;20389;-66
2022/01/19 05:32:50;;;;;;;30.77;15.15;;;;;;;;;;5018728;28;20084;-66
2022/01/19 05:35:17;;;;;;;30.77;14.27;;;;;;;;;;5029375;28;20049;-66
2022/01/19 05:37:43;;;;;;;26.73;12.95;;;;;;;;;;5020647;28;20421;-66
2022/01/19 05:40:11;;;;;;;27.13;14.10;;;;;;;;;;5016168;28;20049;-66
2022/01/19 05:42:37;;;;;;;26.92;14.75;;;;;;;;;;5025784;28;20132;-67
2022/01/19 05:45:04;;;;;;;27.60;14.90;;;;;;;;;;5025263;28;20041;-67
2022/01/19 05:47:30;;;;;;;25.17;14.13;;;;;;;;;;5025194;28;20053;-67
2022/01/19 05:49:56;;;;;;;27.98;15.15;;;;;;;;;;5016389;28;20116;-66
2022/01/19 05:52:23;;;;;;;27.63;15.27;;;;;;;;;;5022355;28;20041;-66
2022/01/19 05:54:49;;;;;;;28.52;16.13;;;;;;;;;;5029403;28;20504;-66
2022/01/19 05:57:15;;;;;;;31.63;16.63;;;;;;;;;;5018896;28;20053;-66
2022/01/19 05:59:42;;;;;;;33.42;17.10;;;;;;;;;;5027910;28;20054;-66
2022/01/19 06:02:08;;;;;;;40.47;19.15;;;;;;;;;;5019317;28;20041;-66
2022/01/19 06:04:35;;;;;;;35.10;18.55;;;;;;;;;;5024325;28;20716;-66
2022/01/19 06:07:03;;;;;;;40.10;19.05;;;;;;;;;;5015995;28;20041;-66
2022/01/19 06:09:47;;;;;;;39.57;19.37;;;;;;;;;;5025982;28;20048;-66
2022/01/19 06:12:15;;;;;;;37.05;19.08;;;;;;;;;;5032933;28;20286;-67
2022/01/19 06:14:43;;;;;;;45.70;20.15;;;;;;;;;;5017361;28;20048;-66
2022/01/19 06:17:10;;;;;;;40.63;20.10;;;;;;;;;;5027042;28;20052;-66
2022/01/19 06:19:36;;;;;;;42.40;20.65;;;;;;;;;;5010445;28;20053;-65
2022/01/19 06:22:03;;;;;;;49.50;23.05;;;;;;;;;;5026657;28;20494;-66
2022/01/19 06:24:29;;;;;;;51.33;22.58;;;;;;;;;;5023310;28;20376;-66
2022/01/19 06:26:55;;;;;;;47.38;22.80;;;;;;;;;;5029927;28;20069;-66
2022/01/19 06:29:22;;;;;;;52.58;24.23;;;;;;;;;;5026021;28;20069;-66
2022/01/19 06:31:48;;;;;;;54.42;23.95;;;;;;;;;;5015259;28;20667;-66
2022/01/19 06:34:15;;;;;;;49.55;21.83;;;;;;;;;;5018595;28;20151;-66
2022/01/19 06:36:41;;;;;;;51.75;23.55;;;;;;;;;;5023199;28;20049;-67
2022/01/19 06:39:08;;;;;;;59.97;26.73;;;;;;;;;;5026263;28;20049;-66
2022/01/19 06:41:34;;;;;;;56.08;25.50;;;;;;;;;;5022692;28;20064;-67
2022/01/19 06:44:00;;;;;;;55.70;25.85;;;;;;;;;;5014039;28;20997;-66
2022/01/19 06:46:27;;;;;;;62.97;24.58;;;;;;;;;;5020058;28;20045;-66
2022/01/19 06:48:53;;;;;;;60.70;25.10;;;;;;;;;;5014509;28;20473;-66
2022/01/19 06:51:20;;;;;;;62.63;26.77;;;;;;;;;;5027966;28;20045;-66
2022/01/19 06:53:47;;;;;;;55.03;23.40;;;;;;;;;;5019095;28;20407;-66
2022/01/19 06:56:13;;;;;;;59.35;25.20;;;;;;;;;;5032978;28;20041;-66
2022/01/19 06:58:39;;;;;;;60.15;24.35;;;;;;;;;;5023097;28;20048;-66
2022/01/19 07:01:06;;;;;;;59.83;25.55;;;;;;;;;;5027378;28;20065;-66
2022/01/19 07:03:33;;;;;;;61.72;25.77;;;;;;;;;;5025488;28;20053;-67
2022/01/19 07:06:01;;;;;;;62.22;26.92;;;;;;;;;;5025071;28;20056;-66
2022/01/19 07:08:27;;;;;;;52.70;23.50;;;;;;;;;;5031004;28;20398;-66
2022/01/19 07:10:54;;;;;;;54.30;23.60;;;;;;;;;;5027499;28;20054;-66
2022/01/19 07:13:21;;;;;;;51.20;24.75;;;;;;;;;;5026602;28;20268;-66
2022/01/19 07:15:48;;;;;;;56.25;24.55;;;;;;;;;;5024137;28;20055;-67
2022/01/19 07:18:14;;;;;;;51.85;23.77;;;;;;;;;;5027430;28;20056;-66
2022/01/19 07:20:41;;;;;;;52.78;24.23;;;;;;;;;;5029462;28;20509;-65
2022/01/19 07:23:07;;;;;;;55.88;24.25;;;;;;;;;;5026910;28;20560;-67
2022/01/19 07:25:33;;;;;;;51.20;24.02;;;;;;;;;;5031450;28;20045;-66
2022/01/19 07:28:00;;;;;;;55.33;24.13;;;;;;;;;;5017710;28;20057;-66
2022/01/19 07:30:26;;;;;;;53.78;23.40;;;;;;;;;;5028234;28;20037;-66
2022/01/19 07:32:53;;;;;;;58.65;24.83;;;;;;;;;;5027590;28;20053;-66
2022/01/19 07:35:19;;;;;;;48.25;21.58;;;;;;;;;;5021894;28;20048;-67
2022/01/19 07:37:45;;;;;;;54.10;25.20;;;;;;;;;;5032910;28;20056;-66
2022/01/19 07:40:12;;;;;;;56.03;23.80;;;;;;;;;;5021109;28;20041;-66
2022/01/19 07:42:39;;;;;;;54.38;23.50;;;;;;;;;;5026305;28;20046;-68
2022/01/19 07:45:06;;;;;;;52.53;23.55;;;;;;;;;;5022597;28;20776;-68
2022/01/19 07:47:32;;;;;;;55.28;24.17;;;;;;;;;;5027245;28;20057;-67
2022/01/19 07:49:58;;;;;;;53.10;22.10;;;;;;;;;;5027061;28;20050;-67
2022/01/19 07:52:26;;;;;;;55.50;23.85;;;;;;;;;;5022571;28;20053;-66
2022/01/19 07:54:52;;;;;;;49.38;22.52;;;;;;;;;;5025554;28;20438;-66
2022/01/19 07:57:19;;;;;;;53.25;22.02;;;;;;;;;;5016662;28;20045;-67
2022/01/19 07:59:45;;;;;;;55.72;23.30;;;;;;;;;;5028814;28;20490;-68
2022/01/19 08:02:13;;;;;;;51.37;22.40;;;;;;;;;;5022476;28;20109;-68
2022/01/19 08:04:40;;;;;;;45.58;21.95;;;;;;;;;;5027117;28;20073;-67
2022/01/19 08:07:06;;;;;;;51.92;22.17;;;;;;;;;;5031677;28;20044;-67
2022/01/19 08:09:34;;;;;;;45.97;23.33;;;;;;;;;;5017011;28;20050;-68
2022/01/19 08:12:00;;;;;;;57.05;25.25;;;;;;;;;;5027429;28;20064;-68
2022/01/19 08:14:27;;;;;;;47.58;22.48;;;;;;;;;;5020928;28;20505;-68
2022/01/19 08:16:54;;;;;;;54.58;23.13;;;;;;;;;;5032761;28;20050;-68
2022/01/19 08:19:21;;;;;;;46.38;23.30;;;;;;;;;;5024456;28;20075;-67
2022/01/19 08:21:48;;;;;;;45.28;22.17;;;;;;;;;;5030941;28;20056;-68
2022/01/19 08:24:15;;;;;;;43.53;22.77;;;;;;;;;;5021901;28;20068;-68
2022/01/19 08:26:42;;;;;;;48.05;22.25;;;;;;;;;;5016997;28;20506;-68
2022/01/19 08:29:09;;;;;;;44.55;22.65;;;;;;;;;;5035433;28;20063;-68
2022/01/19 08:31:36;;;;;;;40.78;20.73;;;;;;;;;;5026607;28;20059;-67
2022/01/19 08:34:07;;;;;;;47.72;21.92;;;;;;;;;;5028526;28;20297;-68
2022/01/19 08:36:34;;;;;;;43.97;20.95;;;;;;;;;;5023373;28;20052;-67
2022/01/19 08:39:00;;;;;;;45.65;21.52;;;;;;;;;;5020656;28;20503;-68
2022/01/19 08:41:27;;;;;;;42.33;21.05;;;;;;;;;;5028512;28;20061;-68
2022/01/19 08:43:53;;;;;;;39.45;20.80;;;;;;;;;;5024903;28;20052;-68
2022/01/19 08:46:20;;;;;;;45.78;22.27;;;;;;;;;;5026658;28;20132;-68
2022/01/19 08:48:46;;;;;;;40.65;21.33;;;;;;;;;;5027451;28;20060;-68
2022/01/19 08:51:13;;;;;;;46.35;22.77;;;;;;;;;;5024355;28;20045;-68
2022/01/19 08:53:40;;;;;;;45.35;22.40;;;;;;;;;;5025976;28;20041;-68
2022/01/19 08:56:06;;;;;;;39.00;21.30;;;;;;;;;;5029811;28;20049;-68
2022/01/19 08:58:32;;;;;;;46.13;22.23;;;;;;;;;;5031450;28;20045;-68
2022/01/19 09:00:59;;;;;;;53.15;23.77;;;;;;;;;;4991738;28;20059;-68
2022/01/19 09:03:28;;;;;;;42.85;21.23;;;;;;;;;;5010989;28;20049;-68
2022/01/19 09:05:54;;;;;;;46.90;21.75;;;;;;;;;;5014116;28;20049;-68
2022/01/19 09:08:20;;;;;;;48.15;22.88;;;;;;;;;;5027582;28;20498;-68
2022/01/19 09:10:50;;;;;;;43.90;22.13;;;;;;;;;;5018885;28;20060;-68
2022/01/19 09:13:16;;;;;;;44.47;21.65;;;;;;;;;;5028717;28;20564;-68
2022/01/19 09:15:43;;;;;;;45.08;21.80;;;;;;;;;;5027229;28;20426;-68
2022/01/19 09:18:09;;;;;;;43.90;21.60;;;;;;;;;;5019637;28;20060;-68
2022/01/19 09:20:36;;;;;;;45.83;22.92;;;;;;;;;;5030681;28;20053;-68
2022/01/19 09:23:02;;;;;;;41.05;21.55;;;;;;;;;;5023355;28;20061;-68
2022/01/19 09:25:29;;;;;;;52.25;22.85;;;;;;;;;;5030110;28;20045;-68
2022/01/19 09:27:55;;;;;;;47.28;23.35;;;;;;;;;;5025506;28;20045;-68
2022/01/19 09:30:23;;;;;;;42.85;21.45;;;;;;;;;;5027487;28;20041;-68
2022/01/19 09:33:05;;;;;;;44.20;21.80;;;;;;;;;;5018438;28;20041;-68
2022/01/19 09:35:40;;;;;;;46.20;22.38;;;;;;;;;;5018539;28;20045;-68
2022/01/19 09:38:06;;;;;;;44.53;21.67;;;;;;;;;;5027916;28;20482;-68
2022/01/19 09:40:32;;;;;;;46.83;21.88;;;;;;;;;;5019908;28;20045;-68
2022/01/19 09:43:07;;;;;;;45.05;21.23;;;;;;;;;;5028550;28;20665;-68
2022/01/19 09:45:33;;;;;;;46.63;21.60;;;;;;;;;;5019374;28;20116;-68
2022/01/19 09:48:00;;;;;;;45.58;22.00;;;;;;;;;;5019796;28;20038;-68
2022/01/19 09:50:26;;;;;;;39.83;19.85;;;;;;;;;;5025828;28;20615;-68
2022/01/19 09:52:54;;;;;;;38.30;20.13;;;;;;;;;;5017010;28;20049;-68
2022/01/19 09:55:20;;;;;;;38.50;19.38;;;;;;;;;;5030433;28;20041;-68
2022/01/19 09:57:47;;;;;;;40.75;20.08;;;;;;;;;;5020908;28;20052;-68
2022/01/19 10:00:13;;;;;;;40.17;20.52;;;;;;;;;;5022861;28;20045;-68
2022/01/19 10:02:39;;;;;;;39.13;19.50;;;;;;;;;;5013335;28;20049;-68
2022/01/19 10:05:07;;;;;;;42.85;21.63;;;;;;;;;;5028225;28;20048;-68
2022/01/19 10:07:33;;;;;;;42.70;21.75;;;;;;;;;;5024775;28;20057;-68
2022/01/19 10:10:01;;;;;;;42.25;20.88;;;;;;;;;;5021845;28;20066;-68
2022/01/19 10:18:06;;;;;;;44.17;21.40;;;;;;;;;;5027718;28;20052;-68
2022/01/19 10:20:32;;;;;;;35.03;20.10;;;;;;;;;;5021576;28;20434;-68
2022/01/19 10:22:59;;;;;;;40.83;20.95;;;;;;;;;;5026997;28;20075;-68
2022/01/19 10:25:45;;;;;;;46.13;22.05;;;;;;;;;;5024091;28;20045;-68
2022/01/19 10:28:12;;;;;;;38.05;19.73;;;;;;;;;;5024411;28;20045;-68
2022/01/19 10:30:38;;;;;;;40.70;20.05;;;;;;;;;;5023481;28;20058;-68
2022/01/19 10:33:04;;;;;;;36.78;20.75;;;;;;;;;;5018146;28;20129;-68
2022/01/19 10:35:33;;;;;;;37.22;20.00;;;;;;;;;;5027849;28;20064;-68
2022/01/19 10:38:09;;;;;;;43.92;20.55;;;;;;;;;;5023214;28;20080;-68
2022/01/19 10:40:36;;;;;;;40.03;19.75;;;;;;;;;;5026813;28;20052;-68
2022/01/19 10:43:21;;;;;;;38.08;20.27;;;;;;;;;;5016915;28;20053;-68
2022/01/19 10:45:48;;;;;;;36.00;20.73;;;;;;;;;;5022183;28;20087;-68
2022/01/19 10:48:28;;;;;;;45.90;22.45;;;;;;;;;;5021930;28;20041;-68
2022/01/19 10:51:05;;;;;;;34.75;18.80;;;;;;;;;;5024735;28;20053;-68
2022/01/19 10:53:31;;;;;;;37.72;20.80;;;;;;;;;;5030251;28;20048;-68
2022/01/19 10:55:58;;;;;;;40.85;21.77;;;;;;;;;;5013073;28;20053;-68
2022/01/19 10:58:24;;;;;;;41.08;19.88;;;;;;;;;;5023734;28;20049;-68
2022/01/19 11:00:51;;;;;;;40.35;20.48;;;;;;;;;;5019446;28;20061;-68
2022/01/19 11:03:26;;;;;;;42.10;21.40;;;;;;;;;;5008547;28;20052;-68
2022/01/19 11:05:57;;;;;;;38.95;21.08;;;;;;;;;;5018054;28;20546;-68
2022/01/19 11:08:25;;;;;;;43.38;21.65;;;;;;;;;;5026635;28;20052;-68
2022/01/19 11:10:53;;;;;;;39.10;20.10;;;;;;;;;;5019529;28;20065;-68
2022/01/19 11:13:56;;;;;;;40.25;20.27;;;;;;;;;;5017882;28;20479;-68
2022/01/19 11:16:13;;;;;;;44.72;19.75;;;;;;;;;;5023044;28;20045;-68
2022/01/19 11:18:41;;;;;;;42.15;21.80;;;;;;;;;;5021263;28;20045;-68
2022/01/19 11:21:09;;;;;;;32.83;18.92;;;;;;;;;;5026707;28;20046;-68
2022/01/19 11:23:42;;;;;;;47.90;22.23;;;;;;;;;;5012333;28;20052;-68
2022/01/19 11:26:14;;;;;;;43.78;22.90;;;;;;;;;;5028673;28;20402;-68
2022/01/19 11:28:44;;;;;;;39.75;22.42;;;;;;;;;;5021327;28;20429;-68
2022/01/19 11:31:13;;;;;;;45.55;22.38;;;;;;;;;;5026675;28;20502;-68
2022/01/19 11:33:43;;;;;;;43.58;22.60;;;;;;;;;;5023123;28;20041;-69
2022/01/19 11:36:21;;;;;;;46.13;22.85;;;;;;;;;;5016120;28;20041;-68
2022/01/19 11:38:49;;;;;;;44.17;22.23;;;;;;;;;;5022166;28;20052;-68
2022/01/19 11:41:15;;;;;;;45.75;22.33;;;;;;;;;;5019991;28;20663;-66
2022/01/19 11:43:52;;;;;;;41.25;21.80;;;;;;;;;;5027202;28;20042;-68
2022/01/19 11:46:25;;;;;;;44.65;22.27;;;;;;;;;;5017085;28;20136;-70
2022/01/19 11:48:52;;;;;;;41.75;21.98;;;;;;;;;;5026473;28;20060;-69
2022/01/19 11:51:27;;;;;;;40.97;21.40;;;;;;;;;;5020878;28;20413;-69
2022/01/19 11:54:07;;;;;;;41.38;21.95;;;;;;;;;;5014652;28;20046;-69
2022/01/19 11:56:53;;;;;;;38.08;21.20;;;;;;;;;;5027662;28;20072;-69
2022/01/19 11:59:20;;;;;;;42.45;21.42;;;;;;;;;;5015730;28;20426;-69
2022/01/19 12:01:46;;;;;;;37.20;18.05;;;;;;;;;;5022278;28;20418;-69
2022/01/19 12:04:20;;;;;;;45.00;23.02;;;;;;;;;;5012697;28;20248;-70
2022/01/19 12:06:47;;;;;;;43.00;21.95;;;;;;;;;;5023158;28;20534;-69
2022/01/19 12:09:15;;;;;;;42.50;21.52;;;;;;;;;;5015102;28;20126;-69
2022/01/19 12:11:49;;;;;;;40.67;22.30;;;;;;;;;;5025194;28;20125;-69
2022/01/19 12:14:26;;;;;;;41.97;19.98;;;;;;;;;;5022232;28;20056;-69
2022/01/19 12:16:56;;;;;;;38.75;22.35;;;;;;;;;;5016357;28;20100;-70
2022/01/19 12:19:26;;;;;;;51.67;23.02;;;;;;;;;;5013664;28;20113;-69
2022/01/19 12:22:06;;;;;;;41.50;20.23;;;;;;;;;;5017952;28;20096;-69
2022/01/19 12:24:34;;;;;;;43.97;22.20;;;;;;;;;;5016059;28;20060;-69
2022/01/19 12:27:00;;;;;;;45.25;21.83;;;;;;;;;;5020628;28;20300;-69
2022/01/19 12:29:32;;;;;;;41.08;21.65;;;;;;;;;;5024939;28;20072;-69
2022/01/19 12:32:00;;;;;;;38.28;21.63;;;;;;;;;;5021751;28;20607;-69
2022/01/19 12:34:38;;;;;;;41.75;21.73;;;;;;;;;;5012210;28;20060;-69
2022/01/19 12:37:05;;;;;;;50.42;21.73;;;;;;;;;;5027107;28;20053;-70
2022/01/19 12:39:35;;;;;;;44.83;22.85;;;;;;;;;;5015309;28;20049;-69
2022/01/19 12:42:03;;;;;;;43.50;23.38;;;;;;;;;;5023751;28;20806;-70
2022/01/19 12:44:35;;;;;;;43.35;22.85;;;;;;;;;;5012980;28;20049;-69
2022/01/19 12:47:02;;;;;;;43.63;23.88;;;;;;;;;;5018673;28;20453;-69
2022/01/19 12:49:29;;;;;;;33.80;20.23;;;;;;;;;;5021299;28;20045;-69
2022/01/19 12:51:56;;;;;;;44.33;23.50;;;;;;;;;;5016634;28;20065;-69
2022/01/19 12:54:27;;;;;;;41.72;22.00;;;;;;;;;;5022125;28;20137;-69
2022/01/19 12:57:04;;;;;;;41.17;20.80;;;;;;;;;;5018281;28;20517;-69
2022/01/19 12:59:31;;;;;;;38.97;21.02;;;;;;;;;;5017040;28;20057;-69
2022/01/19 13:01:59;;;;;;;36.85;20.58;;;;;;;;;;5014646;28;20041;-71
2022/01/19 13:04:26;;;;;;;40.13;21.15;;;;;;;;;;5005352;28;20076;-68
2022/01/19 13:06:55;;;;;;;44.65;21.42;;;;;;;;;;5024616;28;20056;-70
2022/01/19 13:09:31;;;;;;;41.55;21.38;;;;;;;;;;5014117;28;20510;-68
2022/01/19 13:12:01;;;;;;;41.58;22.20;;;;;;;;;;5024986;28;20064;-68
2022/01/19 13:14:29;;;;;;;41.85;23.33;;;;;;;;;;5005321;28;20050;-68
2022/01/19 13:16:55;;;;;;;48.10;24.63;;;;;;;;;;5022924;28;20099;-68
2022/01/19 13:19:23;;;;;;;46.47;24.17;;;;;;;;;;5014199;28;20139;-68
2022/01/19 13:21:51;;;;;;;47.45;24.38;;;;;;;;;;5022452;28;20052;-68
2022/01/19 13:24:26;;;;;;;45.58;23.25;;;;;;;;;;5012801;28;20502;-68
2022/01/19 13:26:54;;;;;;;50.20;23.08;;;;;;;;;;5019951;28;20053;-68
2022/01/19 13:29:23;;;;;;;41.95;22.38;;;;;;;;;;5015553;28;20052;-68
2022/01/19 13:31:58;;;;;;;44.10;23.23;;;;;;;;;;5015056;28;20123;-68
2022/01/19 13:34:25;;;;;;;42.65;22.85;;;;;;;;;;5022827;28;20053;-68
2022/01/19 13:36:55;;;;;;;45.22;23.85;;;;;;;;;;5015818;28;20537;-70
2022/01/19 13:39:22;;;;;;;45.00;25.17;;;;;;;;;;5024809;28;20051;-68
2022/01/19 13:41:51;;;;;;;44.33;23.52;;;;;;;;;;5006021;28;20045;-68
2022/01/19 13:44:21;;;;;;;46.33;24.33;;;;;;;;;;5016981;28;20050;-68
2022/01/19 13:46:48;;;;;;;51.58;27.02;;;;;;;;;;5019078;28;20138;-70
2022/01/19 13:49:14;;;;;;;47.28;26.25;;;;;;;;;;5014986;28;20045;-68
2022/01/19 13:51:42;;;;;;;46.30;23.88;;;;;;;;;;5018696;28;20598;-68
2022/01/19 13:54:08;;;;;;;45.53;23.73;;;;;;;;;;5017062;28;20456;-70
2022/01/19 13:56:39;;;;;;;44.58;23.98;;;;;;;;;;5013477;28;20517;-70
2022/01/19 13:59:07;;;;;;;48.08;25.30;;;;;;;;;;5022081;28;20060;-68
2022/01/19 14:01:35;;;;;;;51.45;25.65;;;;;;;;;;5016312;28;20157;-69
2022/01/19 14:04:08;;;;;;;45.83;24.80;;;;;;;;;;5022836;28;20128;-68
2022/01/19 14:06:36;;;;;;;49.03;26.67;;;;;;;;;;5012175;28;20064;-68
2022/01/19 14:09:05;;;;;;;46.30;24.83;;;;;;;;;;5003745;28;20045;-68
2022/01/19 14:11:32;;;;;;;53.65;25.83;;;;;;;;;;5008166;28;20045;-68
2022/01/19 14:13:59;;;;;;;53.30;26.55;;;;;;;;;;5022409;28;20056;-68
2022/01/19 14:16:27;;;;;;;54.00;26.48;;;;;;;;;;5024908;28;20455;-68
2022/01/19 14:19:13;;;;;;;47.50;24.50;;;;;;;;;;5014329;28;20060;-69
2022/01/19 14:21:52;;;;;;;52.35;25.67;;;;;;;;;;5021624;28;20375;-68
2022/01/19 14:24:18;;;;;;;50.75;25.75;;;;;;;;;;5009681;28;20048;-71
2022/01/19 14:26:48;;;;;;;46.78;23.83;;;;;;;;;;5017088;28;20053;-68
2022/01/19 14:29:15;;;;;;;45.58;25.33;;;;;;;;;;5016715;28;20133;-68
2022/01/19 14:31:51;;;;;;;51.28;25.35;;;;;;;;;;5018767;28;20077;-68
2022/01/19 14:34:38;;;;;;;49.70;25.75;;;;;;;;;;5014965;28;20037;-68
2022/01/19 14:37:12;;;;;;;50.40;25.55;;;;;;;;;;5019111;28;20145;-68
2022/01/19 14:39:49;;;;;;;49.35;26.02;;;;;;;;;;5014804;28;20050;-69
2022/01/19 14:42:18;;;;;;;48.35;26.13;;;;;;;;;;5018467;28;20052;-68
2022/01/19 14:44:58;;;;;;;53.20;26.83;;;;;;;;;;5022374;28;20045;-68
2022/01/19 14:47:37;;;;;;;48.88;24.88;;;;;;;;;;4988444;28;20406;-68
2022/01/19 14:50:16;;;;;;;52.08;27.38;;;;;;;;;;5021567;28;20054;-69
2022/01/19 14:52:43;;;;;;;51.58;24.73;;;;;;;;;;5007871;28;20054;-69
2022/01/19 14:55:09;;;;;;;51.17;26.00;;;;;;;;;;5019538;28;20059;-69
2022/01/19 14:57:35;;;;;;;51.10;26.48;;;;;;;;;;5013737;28;20061;-69
2022/01/19 15:00:05;;;;;;;51.88;27.13;;;;;;;;;;5031185;28;20044;-69
2022/01/19 15:02:31;;;;;;;52.45;27.45;;;;;;;;;;5008156;28;20601;-68
2022/01/19 15:04:58;;;;;;;48.95;25.85;;;;;;;;;;5023524;28;20049;-68
2022/01/19 15:07:24;;;;;;;47.22;25.75;;;;;;;;;;5018467;28;20052;-69
2022/01/19 15:09:50;;;;;;;47.53;25.58;;;;;;;;;;5016954;28;20434;-68
2022/01/19 15:12:16;;;;;;;50.38;26.42;;;;;;;;;;5021562;28;20387;-68
2022/01/19 15:14:48;;;;;;;47.25;26.65;;;;;;;;;;5015262;28;20048;-69
2022/01/19 15:17:15;;;;;;;54.33;27.27;;;;;;;;;;5023453;28;20053;-69
2022/01/19 15:19:42;;;;;;;57.45;26.67;;;;;;;;;;5015133;28;20051;-68
2022/01/19 15:22:08;;;;;;;61.35;28.30;;;;;;;;;;5026995;28;20041;-68
2022/01/19 15:24:34;;;;;;;60.58;27.48;;;;;;;;;;5027631;28;20057;-68
2022/01/19 15:27:02;;;;;;;50.50;26.52;;;;;;;;;;5016959;28;20053;-70
2022/01/19 15:29:28;;;;;;;47.83;24.48;;;;;;;;;;5029105;28;20590;-70
2022/01/19 15:31:54;;;;;;;55.63;28.77;;;;;;;;;;5012637;28;20034;-68
2022/01/19 15:34:21;;;;;;;55.22;27.95;;;;;;;;;;5019421;28;20413;-68
2022/01/19 15:36:47;;;;;;;50.72;26.45;;;;;;;;;;5024792;28;20053;-68
2022/01/19 15:39:14;;;;;;;46.47;26.58;;;;;;;;;;5017940;28;20431;-68
2022/01/19 15:41:40;;;;;;;59.63;28.75;;;;;;;;;;5024063;28;20471;-68
2022/01/19 15:44:07;;;;;;;47.65;26.38;;;;;;;;;;5014089;28;20045;-68
2022/01/19 15:46:34;;;;;;;58.90;29.15;;;;;;;;;;5022088;28;20045;-68